sensor_id;sensor_type;location;lat;lon;timestamp;P1;durP1;ratioP1;P2;durP2;ratioP2
15708;SDS011;7954;51.914;8.420;2023-04-03T00:01:12;2.60;;;1.30;;
15708;SDS011;7954;51.914;8.420;2023-04-03T00:03:40;2.90;;;1.50;;
15708;SDS011;7954;51.914;8.420;2023-04-03T00:06:08;2.80;;;1.57;;
15708;SDS011;7954;51.914;8.420;2023-04-03T00:08:38;2.27;;;1.50;;
15708;SDS011;7954;51.914;8.420;2023-04-03T00:11:07;2.20;;;1.30;;
15708;SDS011;7954;51.914;8.420;2023-04-03T00:13:36;3.67;;;1.60;;
15708;SDS011;7954;51.914;8.420;2023-04-03T00:16:07;3.47;;;1.40;;
15708;SDS011;7954;51.914;8.420;2023-04-03T00:18:37;3.80;;;1.50;;
15708;SDS011;7954;51.914;8.420;2023-04-03T00:21:07;2.23;;;1.30;;
15708;SDS011;7954;51.914;8.420;2023-04-03T00:23:36;2.67;;;1.23;;
15708;SDS011;7954;51.914;8.420;2023-04-03T00:26:05;3.77;;;1.50;;
15708;SDS011;7954;51.914;8.420;2023-04-03T00:28:33;3.23;;;1.63;;
15708;SDS011;7954;51.914;8.420;2023-04-03T00:31:02;6.33;;;1.53;;
15708;SDS011;7954;51.914;8.420;2023-04-03T00:33:32;2.27;;;1.47;;
15708;SDS011;7954;51.914;8.420;2023-04-03T00:36:04;2.70;;;1.40;;
15708;SDS011;7954;51.914;8.420;2023-04-03T00:38:33;1.77;;;1.50;;
15708;SDS011;7954;51.914;8.420;2023-04-03T00:41:01;2.30;;;1.40;;
15708;SDS011;7954;51.914;8.420;2023-04-03T00:43:30;2.13;;;1.30;;
15708;SDS011;7954;51.914;8.420;2023-04-03T00:45:58;2.47;;;1.43;;
15708;SDS011;7954;51.914;8.420;2023-04-03T00:48:27;3.27;;;1.50;;
15708;SDS011;7954;51.914;8.420;2023-04-03T00:50:59;1.87;;;1.30;;
15708;SDS011;7954;51.914;8.420;2023-04-03T00:53:30;1.73;;;1.40;;
15708;SDS011;7954;51.914;8.420;2023-04-03T00:56:00;5.20;;;1.53;;
15708;SDS011;7954;51.914;8.420;2023-04-03T00:58:31;3.30;;;1.53;;
15708;SDS011;7954;51.914;8.420;2023-04-03T01:01:03;2.87;;;1.20;;
15708;SDS011;7954;51.914;8.420;2023-04-03T01:03:34;2.20;;;1.40;;
15708;SDS011;7954;51.914;8.420;2023-04-03T01:06:04;2.17;;;1.53;;
15708;SDS011;7954;51.914;8.420;2023-04-03T01:08:32;3.23;;;1.50;;
15708;SDS011;7954;51.914;8.420;2023-04-03T01:11:00;2.53;;;1.30;;
15708;SDS011;7954;51.914;8.420;2023-04-03T01:13:30;2.53;;;1.40;;
15708;SDS011;7954;51.914;8.420;2023-04-03T01:16:00;3.60;;;1.73;;
15708;SDS011;7954;51.914;8.420;2023-04-03T01:18:29;2.77;;;1.33;;
15708;SDS011;7954;51.914;8.420;2023-04-03T01:21:09;2.43;;;1.43;;
15708;SDS011;7954;51.914;8.420;2023-04-03T01:24:11;14.10;;;1.70;;
15708;SDS011;7954;51.914;8.420;2023-04-03T01:26:52;3.40;;;1.37;;
15708;SDS011;7954;51.914;8.420;2023-04-03T01:29:21;3.13;;;1.60;;
15708;SDS011;7954;51.914;8.420;2023-04-03T01:31:51;1.70;;;1.30;;
15708;SDS011;7954;51.914;8.420;2023-04-03T01:34:21;1.60;;;1.23;;
15708;SDS011;7954;51.914;8.420;2023-04-03T01:36:50;3.23;;;1.73;;
15708;SDS011;7954;51.914;8.420;2023-04-03T01:39:19;4.23;;;1.77;;
15708;SDS011;7954;51.914;8.420;2023-04-03T01:41:47;2.67;;;1.30;;
15708;SDS011;7954;51.914;8.420;2023-04-03T01:44:15;2.37;;;1.60;;
15708;SDS011;7954;51.914;8.420;2023-04-03T01:46:43;3.50;;;1.80;;
15708;SDS011;7954;51.914;8.420;2023-04-03T01:49:12;2.33;;;1.57;;
15708;SDS011;7954;51.914;8.420;2023-04-03T01:51:40;3.07;;;1.67;;
15708;SDS011;7954;51.914;8.420;2023-04-03T01:54:43;2.87;;;1.43;;
15708;SDS011;7954;51.914;8.420;2023-04-03T01:57:11;3.13;;;1.87;;
15708;SDS011;7954;51.914;8.420;2023-04-03T01:59:40;3.13;;;2.03;;
15708;SDS011;7954;51.914;8.420;2023-04-03T02:02:08;2.27;;;1.70;;
15708;SDS011;7954;51.914;8.420;2023-04-03T02:04:36;2.43;;;1.47;;
15708;SDS011;7954;51.914;8.420;2023-04-03T02:07:03;3.00;;;1.67;;
15708;SDS011;7954;51.914;8.420;2023-04-03T02:09:31;2.20;;;1.40;;
15708;SDS011;7954;51.914;8.420;2023-04-03T02:12:00;2.80;;;1.40;;
15708;SDS011;7954;51.914;8.420;2023-04-03T02:14:28;3.10;;;1.60;;
15708;SDS011;7954;51.914;8.420;2023-04-03T02:16:57;2.93;;;1.80;;
15708;SDS011;7954;51.914;8.420;2023-04-03T02:19:24;2.93;;;1.60;;
15708;SDS011;7954;51.914;8.420;2023-04-03T02:21:52;2.70;;;1.90;;
15708;SDS011;7954;51.914;8.420;2023-04-03T02:24:20;4.73;;;1.60;;
15708;SDS011;7954;51.914;8.420;2023-04-03T02:26:48;3.20;;;1.80;;
15708;SDS011;7954;51.914;8.420;2023-04-03T02:29:17;3.90;;;1.53;;
15708;SDS011;7954;51.914;8.420;2023-04-03T02:31:46;2.33;;;1.50;;
15708;SDS011;7954;51.914;8.420;2023-04-03T02:34:14;4.00;;;1.63;;
15708;SDS011;7954;51.914;8.420;2023-04-03T02:36:42;4.70;;;1.70;;
15708;SDS011;7954;51.914;8.420;2023-04-03T02:39:10;3.77;;;1.70;;
15708;SDS011;7954;51.914;8.420;2023-04-03T02:41:38;2.63;;;1.70;;
15708;SDS011;7954;51.914;8.420;2023-04-03T02:44:06;1.90;;;1.37;;
15708;SDS011;7954;51.914;8.420;2023-04-03T02:46:37;3.77;;;1.70;;
15708;SDS011;7954;51.914;8.420;2023-04-03T02:49:05;2.03;;;1.50;;
15708;SDS011;7954;51.914;8.420;2023-04-03T02:51:33;3.27;;;1.43;;
15708;SDS011;7954;51.914;8.420;2023-04-03T02:54:02;3.50;;;1.83;;
15708;SDS011;7954;51.914;8.420;2023-04-03T02:56:32;3.60;;;2.00;;
15708;SDS011;7954;51.914;8.420;2023-04-03T02:59:00;2.63;;;1.50;;
15708;SDS011;7954;51.914;8.420;2023-04-03T03:01:28;5.30;;;1.70;;
15708;SDS011;7954;51.914;8.420;2023-04-03T03:04:00;5.20;;;1.70;;
15708;SDS011;7954;51.914;8.420;2023-04-03T03:06:28;2.03;;;1.30;;
15708;SDS011;7954;51.914;8.420;2023-04-03T03:08:56;3.17;;;1.97;;
15708;SDS011;7954;51.914;8.420;2023-04-03T03:11:24;2.20;;;1.67;;
15708;SDS011;7954;51.914;8.420;2023-04-03T03:13:52;2.57;;;1.50;;
15708;SDS011;7954;51.914;8.420;2023-04-03T03:16:21;2.23;;;1.40;;
15708;SDS011;7954;51.914;8.420;2023-04-03T03:18:49;2.70;;;1.83;;
15708;SDS011;7954;51.914;8.420;2023-04-03T03:21:18;3.43;;;1.50;;
15708;SDS011;7954;51.914;8.420;2023-04-03T03:23:47;5.43;;;1.83;;
15708;SDS011;7954;51.914;8.420;2023-04-03T03:26:15;3.07;;;1.87;;
15708;SDS011;7954;51.914;8.420;2023-04-03T03:28:44;3.90;;;2.33;;
15708;SDS011;7954;51.914;8.420;2023-04-03T03:32:15;2.90;;;1.50;;
15708;SDS011;7954;51.914;8.420;2023-04-03T03:34:43;2.90;;;1.70;;
15708;SDS011;7954;51.914;8.420;2023-04-03T03:37:11;3.13;;;1.50;;
15708;SDS011;7954;51.914;8.420;2023-04-03T03:39:39;3.03;;;1.47;;
15708;SDS011;7954;51.914;8.420;2023-04-03T03:44:43;4.60;;;1.80;;
15708;SDS011;7954;51.914;8.420;2023-04-03T03:47:12;2.83;;;1.57;;
15708;SDS011;7954;51.914;8.420;2023-04-03T03:49:40;5.60;;;1.60;;
15708;SDS011;7954;51.914;8.420;2023-04-03T03:52:08;2.53;;;1.70;;
15708;SDS011;7954;51.914;8.420;2023-04-03T03:54:37;1.97;;;1.47;;
15708;SDS011;7954;51.914;8.420;2023-04-03T03:57:06;4.83;;;1.63;;
15708;SDS011;7954;51.914;8.420;2023-04-03T03:59:34;3.57;;;1.60;;
15708;SDS011;7954;51.914;8.420;2023-04-03T04:02:05;2.27;;;1.70;;
15708;SDS011;7954;51.914;8.420;2023-04-03T04:04:33;2.63;;;1.60;;
15708;SDS011;7954;51.914;8.420;2023-04-03T04:07:01;3.30;;;1.80;;
15708;SDS011;7954;51.914;8.420;2023-04-03T04:09:33;2.27;;;1.63;;
15708;SDS011;7954;51.914;8.420;2023-04-03T04:12:01;3.80;;;1.60;;
15708;SDS011;7954;51.914;8.420;2023-04-03T04:14:29;4.57;;;2.07;;
15708;SDS011;7954;51.914;8.420;2023-04-03T04:16:58;3.77;;;1.57;;
15708;SDS011;7954;51.914;8.420;2023-04-03T04:19:27;2.67;;;1.80;;
15708;SDS011;7954;51.914;8.420;2023-04-03T04:21:55;2.87;;;1.60;;
15708;SDS011;7954;51.914;8.420;2023-04-03T04:24:23;2.70;;;1.80;;
15708;SDS011;7954;51.914;8.420;2023-04-03T04:26:51;3.67;;;1.43;;
15708;SDS011;7954;51.914;8.420;2023-04-03T04:29:19;2.70;;;1.40;;
15708;SDS011;7954;51.914;8.420;2023-04-03T04:31:47;4.23;;;1.57;;
15708;SDS011;7954;51.914;8.420;2023-04-03T04:34:15;2.43;;;1.50;;
15708;SDS011;7954;51.914;8.420;2023-04-03T04:36:45;3.77;;;1.77;;
15708;SDS011;7954;51.914;8.420;2023-04-03T04:39:14;5.03;;;2.10;;
15708;SDS011;7954;51.914;8.420;2023-04-03T04:41:42;3.50;;;1.90;;
15708;SDS011;7954;51.914;8.420;2023-04-03T04:44:09;1.77;;;1.37;;
15708;SDS011;7954;51.914;8.420;2023-04-03T04:46:37;2.30;;;1.50;;
15708;SDS011;7954;51.914;8.420;2023-04-03T04:49:05;3.63;;;1.60;;
15708;SDS011;7954;51.914;8.420;2023-04-03T04:51:34;2.37;;;1.63;;
15708;SDS011;7954;51.914;8.420;2023-04-03T04:54:18;3.03;;;1.70;;
15708;SDS011;7954;51.914;8.420;2023-04-03T04:56:46;2.00;;;1.70;;
15708;SDS011;7954;51.914;8.420;2023-04-03T04:59:14;3.27;;;1.80;;
15708;SDS011;7954;51.914;8.420;2023-04-03T05:01:43;2.23;;;1.80;;
15708;SDS011;7954;51.914;8.420;2023-04-03T05:04:12;4.53;;;1.53;;
15708;SDS011;7954;51.914;8.420;2023-04-03T05:06:40;3.77;;;1.67;;
15708;SDS011;7954;51.914;8.420;2023-04-03T05:09:09;3.43;;;1.73;;
15708;SDS011;7954;51.914;8.420;2023-04-03T05:11:38;2.63;;;1.83;;
15708;SDS011;7954;51.914;8.420;2023-04-03T05:14:06;3.03;;;1.80;;
15708;SDS011;7954;51.914;8.420;2023-04-03T05:16:34;4.10;;;1.80;;
15708;SDS011;7954;51.914;8.420;2023-04-03T05:19:02;3.80;;;2.00;;
15708;SDS011;7954;51.914;8.420;2023-04-03T05:21:31;3.27;;;1.77;;
15708;SDS011;7954;51.914;8.420;2023-04-03T05:23:59;4.10;;;1.50;;
15708;SDS011;7954;51.914;8.420;2023-04-03T05:26:29;3.13;;;1.77;;
15708;SDS011;7954;51.914;8.420;2023-04-03T05:28:59;4.47;;;1.80;;
15708;SDS011;7954;51.914;8.420;2023-04-03T05:31:26;3.27;;;1.77;;
15708;SDS011;7954;51.914;8.420;2023-04-03T05:33:56;4.77;;;1.57;;
15708;SDS011;7954;51.914;8.420;2023-04-03T05:36:25;3.93;;;1.93;;
15708;SDS011;7954;51.914;8.420;2023-04-03T05:38:54;3.23;;;1.97;;
15708;SDS011;7954;51.914;8.420;2023-04-03T05:41:22;4.67;;;1.80;;
15708;SDS011;7954;51.914;8.420;2023-04-03T05:43:51;4.57;;;1.73;;
15708;SDS011;7954;51.914;8.420;2023-04-03T05:46:21;2.80;;;1.97;;
15708;SDS011;7954;51.914;8.420;2023-04-03T05:48:49;4.47;;;2.00;;
15708;SDS011;7954;51.914;8.420;2023-04-03T05:51:18;5.47;;;2.37;;
15708;SDS011;7954;51.914;8.420;2023-04-03T05:53:49;2.43;;;1.40;;
15708;SDS011;7954;51.914;8.420;2023-04-03T05:56:23;3.77;;;1.80;;
15708;SDS011;7954;51.914;8.420;2023-04-03T05:58:50;3.73;;;2.00;;
15708;SDS011;7954;51.914;8.420;2023-04-03T06:01:18;3.93;;;2.00;;
15708;SDS011;7954;51.914;8.420;2023-04-03T06:03:48;3.10;;;1.83;;
15708;SDS011;7954;51.914;8.420;2023-04-03T06:06:16;5.80;;;1.97;;
15708;SDS011;7954;51.914;8.420;2023-04-03T06:08:45;2.87;;;1.80;;
15708;SDS011;7954;51.914;8.420;2023-04-03T06:11:14;3.33;;;1.93;;
15708;SDS011;7954;51.914;8.420;2023-04-03T06:13:41;4.80;;;2.47;;
15708;SDS011;7954;51.914;8.420;2023-04-03T06:16:12;3.67;;;1.87;;
15708;SDS011;7954;51.914;8.420;2023-04-03T06:18:41;3.47;;;2.30;;
15708;SDS011;7954;51.914;8.420;2023-04-03T06:21:10;4.10;;;2.47;;
15708;SDS011;7954;51.914;8.420;2023-04-03T06:23:40;4.77;;;2.40;;
15708;SDS011;7954;51.914;8.420;2023-04-03T06:26:08;2.50;;;1.63;;
15708;SDS011;7954;51.914;8.420;2023-04-03T06:28:36;5.37;;;2.40;;
15708;SDS011;7954;51.914;8.420;2023-04-03T06:31:03;4.07;;;2.20;;
15708;SDS011;7954;51.914;8.420;2023-04-03T06:33:31;3.60;;;1.90;;
15708;SDS011;7954;51.914;8.420;2023-04-03T06:35:59;4.00;;;2.00;;
15708;SDS011;7954;51.914;8.420;2023-04-03T06:40:38;5.70;;;1.73;;
15708;SDS011;7954;51.914;8.420;2023-04-03T06:43:06;3.30;;;2.00;;
15708;SDS011;7954;51.914;8.420;2023-04-03T06:45:34;4.93;;;2.97;;
15708;SDS011;7954;51.914;8.420;2023-04-03T06:48:03;5.67;;;2.50;;
15708;SDS011;7954;51.914;8.420;2023-04-03T06:50:32;2.53;;;1.80;;
15708;SDS011;7954;51.914;8.420;2023-04-03T06:53:01;3.93;;;2.40;;
15708;SDS011;7954;51.914;8.420;2023-04-03T06:55:33;3.37;;;1.70;;
15708;SDS011;7954;51.914;8.420;2023-04-03T06:58:04;3.20;;;2.10;;
15708;SDS011;7954;51.914;8.420;2023-04-03T07:00:34;5.13;;;2.67;;
15708;SDS011;7954;51.914;8.420;2023-04-03T07:03:02;3.40;;;1.87;;
15708;SDS011;7954;51.914;8.420;2023-04-03T07:05:30;3.60;;;2.43;;
15708;SDS011;7954;51.914;8.420;2023-04-03T07:07:58;3.03;;;1.83;;
15708;SDS011;7954;51.914;8.420;2023-04-03T07:10:27;3.77;;;2.27;;
15708;SDS011;7954;51.914;8.420;2023-04-03T07:12:54;6.17;;;2.80;;
15708;SDS011;7954;51.914;8.420;2023-04-03T07:15:24;3.27;;;2.20;;
15708;SDS011;7954;51.914;8.420;2023-04-03T07:17:52;5.90;;;2.30;;
15708;SDS011;7954;51.914;8.420;2023-04-03T07:20:20;2.53;;;2.00;;
15708;SDS011;7954;51.914;8.420;2023-04-03T07:22:48;4.63;;;1.90;;
15708;SDS011;7954;51.914;8.420;2023-04-03T07:25:17;2.40;;;1.70;;
15708;SDS011;7954;51.914;8.420;2023-04-03T07:27:45;3.17;;;1.80;;
15708;SDS011;7954;51.914;8.420;2023-04-03T07:30:13;2.40;;;1.50;;
15708;SDS011;7954;51.914;8.420;2023-04-03T07:32:43;3.33;;;1.90;;
15708;SDS011;7954;51.914;8.420;2023-04-03T07:35:12;3.50;;;2.00;;
15708;SDS011;7954;51.914;8.420;2023-04-03T07:37:40;3.33;;;2.00;;
15708;SDS011;7954;51.914;8.420;2023-04-03T07:40:09;3.07;;;1.57;;
15708;SDS011;7954;51.914;8.420;2023-04-03T07:42:39;4.00;;;1.50;;
15708;SDS011;7954;51.914;8.420;2023-04-03T07:45:08;2.60;;;1.60;;
15708;SDS011;7954;51.914;8.420;2023-04-03T07:47:36;2.30;;;1.60;;
15708;SDS011;7954;51.914;8.420;2023-04-03T07:50:06;2.43;;;1.40;;
15708;SDS011;7954;51.914;8.420;2023-04-03T07:52:35;3.70;;;1.60;;
15708;SDS011;7954;51.914;8.420;2023-04-03T07:55:03;3.23;;;1.53;;
15708;SDS011;7954;51.914;8.420;2023-04-03T07:57:32;2.80;;;1.40;;
15708;SDS011;7954;51.914;8.420;2023-04-03T08:00:00;1.57;;;1.30;;
15708;SDS011;7954;51.914;8.420;2023-04-03T08:02:28;4.23;;;2.47;;
15708;SDS011;7954;51.914;8.420;2023-04-03T08:04:58;4.90;;;3.60;;
15708;SDS011;7954;51.914;8.420;2023-04-03T08:07:27;5.50;;;3.10;;
15708;SDS011;7954;51.914;8.420;2023-04-03T08:09:55;8.10;;;5.90;;
15708;SDS011;7954;51.914;8.420;2023-04-03T08:12:23;8.57;;;5.43;;
15708;SDS011;7954;51.914;8.420;2023-04-03T08:14:51;3.77;;;2.03;;
15708;SDS011;7954;51.914;8.420;2023-04-03T08:17:19;1.83;;;1.40;;
15708;SDS011;7954;51.914;8.420;2023-04-03T08:19:46;3.60;;;1.37;;
15708;SDS011;7954;51.914;8.420;2023-04-03T08:22:14;1.63;;;1.23;;
15708;SDS011;7954;51.914;8.420;2023-04-03T08:24:44;2.10;;;1.47;;
15708;SDS011;7954;51.914;8.420;2023-04-03T08:27:24;3.03;;;1.60;;
15708;SDS011;7954;51.914;8.420;2023-04-03T08:29:54;3.40;;;2.10;;
15708;SDS011;7954;51.914;8.420;2023-04-03T08:32:23;4.37;;;2.33;;
15708;SDS011;7954;51.914;8.420;2023-04-03T08:34:53;1.87;;;1.50;;
15708;SDS011;7954;51.914;8.420;2023-04-03T08:37:20;2.30;;;1.47;;
15708;SDS011;7954;51.914;8.420;2023-04-03T08:39:50;3.90;;;1.57;;
15708;SDS011;7954;51.914;8.420;2023-04-03T08:42:19;2.87;;;1.73;;
15708;SDS011;7954;51.914;8.420;2023-04-03T08:45:05;3.20;;;1.83;;
15708;SDS011;7954;51.914;8.420;2023-04-03T08:47:40;2.63;;;1.70;;
15708;SDS011;7954;51.914;8.420;2023-04-03T08:50:14;1.33;;;1.00;;
15708;SDS011;7954;51.914;8.420;2023-04-03T08:52:44;2.90;;;1.70;;
15708;SDS011;7954;51.914;8.420;2023-04-03T08:55:19;4.37;;;1.70;;
15708;SDS011;7954;51.914;8.420;2023-04-03T08:57:53;2.50;;;1.47;;
15708;SDS011;7954;51.914;8.420;2023-04-03T09:00:28;2.03;;;1.40;;
15708;SDS011;7954;51.914;8.420;2023-04-03T09:02:59;3.30;;;1.30;;
15708;SDS011;7954;51.914;8.420;2023-04-03T09:05:30;3.07;;;1.50;;
15708;SDS011;7954;51.914;8.420;2023-04-03T09:08:07;3.00;;;1.77;;
15708;SDS011;7954;51.914;8.420;2023-04-03T09:10:45;1.73;;;1.30;;
15708;SDS011;7954;51.914;8.420;2023-04-03T09:13:13;1.93;;;1.20;;
15708;SDS011;7954;51.914;8.420;2023-04-03T09:15:52;1.80;;;1.37;;
15708;SDS011;7954;51.914;8.420;2023-04-03T09:18:23;1.90;;;1.40;;
15708;SDS011;7954;51.914;8.420;2023-04-03T09:20:57;1.93;;;1.57;;
15708;SDS011;7954;51.914;8.420;2023-04-03T09:23:33;2.17;;;1.40;;
15708;SDS011;7954;51.914;8.420;2023-04-03T09:26:07;2.43;;;1.50;;
15708;SDS011;7954;51.914;8.420;2023-04-03T09:28:41;2.13;;;1.40;;
15708;SDS011;7954;51.914;8.420;2023-04-03T09:31:18;2.60;;;1.30;;
15708;SDS011;7954;51.914;8.420;2023-04-03T09:33:49;2.77;;;1.30;;
15708;SDS011;7954;51.914;8.420;2023-04-03T09:36:38;1.80;;;1.30;;
15708;SDS011;7954;51.914;8.420;2023-04-03T09:39:18;1.87;;;1.20;;
15708;SDS011;7954;51.914;8.420;2023-04-03T09:41:57;1.80;;;1.30;;
15708;SDS011;7954;51.914;8.420;2023-04-03T09:44:27;1.67;;;1.20;;
15708;SDS011;7954;51.914;8.420;2023-04-03T09:46:57;2.53;;;1.50;;
15708;SDS011;7954;51.914;8.420;2023-04-03T09:49:26;2.10;;;1.23;;
15708;SDS011;7954;51.914;8.420;2023-04-03T09:51:54;1.90;;;1.23;;
15708;SDS011;7954;51.914;8.420;2023-04-03T09:57:11;2.73;;;1.43;;
15708;SDS011;7954;51.914;8.420;2023-04-03T09:59:45;2.43;;;1.10;;
15708;SDS011;7954;51.914;8.420;2023-04-03T10:02:21;2.70;;;1.33;;
15708;SDS011;7954;51.914;8.420;2023-04-03T10:04:55;3.00;;;1.27;;
15708;SDS011;7954;51.914;8.420;2023-04-03T10:07:36;4.83;;;1.40;;
15708;SDS011;7954;51.914;8.420;2023-04-03T10:10:19;3.00;;;1.73;;
15708;SDS011;7954;51.914;8.420;2023-04-03T10:13:01;2.60;;;1.10;;
15708;SDS011;7954;51.914;8.420;2023-04-03T10:15:32;2.90;;;1.23;;
15708;SDS011;7954;51.914;8.420;2023-04-03T10:18:06;1.47;;;1.00;;
15708;SDS011;7954;51.914;8.420;2023-04-03T10:20:50;2.50;;;1.43;;
15708;SDS011;7954;51.914;8.420;2023-04-03T10:23:21;2.37;;;1.10;;
15708;SDS011;7954;51.914;8.420;2023-04-03T10:25:55;1.57;;;1.10;;
15708;SDS011;7954;51.914;8.420;2023-04-03T10:28:35;1.93;;;1.30;;
15708;SDS011;7954;51.914;8.420;2023-04-03T10:31:13;2.37;;;1.70;;
15708;SDS011;7954;51.914;8.420;2023-04-03T10:33:48;4.50;;;1.60;;
15708;SDS011;7954;51.914;8.420;2023-04-03T10:36:25;1.50;;;1.10;;
15708;SDS011;7954;51.914;8.420;2023-04-03T10:39:02;1.50;;;1.30;;
15708;SDS011;7954;51.914;8.420;2023-04-03T10:41:43;1.10;;;1.00;;
15708;SDS011;7954;51.914;8.420;2023-04-03T10:44:40;1.10;;;1.00;;
15708;SDS011;7954;51.914;8.420;2023-04-03T10:47:19;0.97;;;0.87;;
15708;SDS011;7954;51.914;8.420;2023-04-03T10:49:51;1.70;;;1.40;;
15708;SDS011;7954;51.914;8.420;2023-04-03T10:52:28;2.47;;;1.73;;
15708;SDS011;7954;51.914;8.420;2023-04-03T10:55:09;5.70;;;2.87;;
15708;SDS011;7954;51.914;8.420;2023-04-03T10:57:52;4.00;;;2.43;;
15708;SDS011;7954;51.914;8.420;2023-04-03T11:00:25;4.47;;;2.97;;
15708;SDS011;7954;51.914;8.420;2023-04-03T11:02:58;5.93;;;4.33;;
15708;SDS011;7954;51.914;8.420;2023-04-03T11:05:29;5.40;;;3.60;;
15708;SDS011;7954;51.914;8.420;2023-04-03T11:08:03;5.77;;;3.93;;
15708;SDS011;7954;51.914;8.420;2023-04-03T11:10:37;2.60;;;1.73;;
15708;SDS011;7954;51.914;8.420;2023-04-03T11:13:11;2.83;;;1.40;;
15708;SDS011;7954;51.914;8.420;2023-04-03T11:15:44;5.57;;;3.37;;
15708;SDS011;7954;51.914;8.420;2023-04-03T11:18:14;9.03;;;6.33;;
15708;SDS011;7954;51.914;8.420;2023-04-03T11:20:47;6.57;;;5.00;;
15708;SDS011;7954;51.914;8.420;2023-04-03T11:23:24;6.60;;;4.27;;
15708;SDS011;7954;51.914;8.420;2023-04-03T11:26:09;6.97;;;5.10;;
15708;SDS011;7954;51.914;8.420;2023-04-03T11:28:39;4.30;;;3.70;;
15708;SDS011;7954;51.914;8.420;2023-04-03T11:31:13;4.17;;;2.53;;
15708;SDS011;7954;51.914;8.420;2023-04-03T11:33:51;2.00;;;1.40;;
15708;SDS011;7954;51.914;8.420;2023-04-03T11:36:27;4.90;;;1.90;;
15708;SDS011;7954;51.914;8.420;2023-04-03T11:39:01;2.57;;;1.53;;
15708;SDS011;7954;51.914;8.420;2023-04-03T11:41:41;4.53;;;2.10;;
15708;SDS011;7954;51.914;8.420;2023-04-03T11:44:25;1.50;;;1.23;;
15708;SDS011;7954;51.914;8.420;2023-04-03T11:47:00;2.03;;;1.57;;
15708;SDS011;7954;51.914;8.420;2023-04-03T11:58:22;1.77;;;1.30;;
15708;SDS011;7954;51.914;8.420;2023-04-03T12:00:54;2.13;;;1.20;;
15708;SDS011;7954;51.914;8.420;2023-04-03T12:06:50;1.53;;;1.00;;
15708;SDS011;7954;51.914;8.420;2023-04-03T12:12:31;2.47;;;2.23;;
15708;SDS011;7954;51.914;8.420;2023-04-03T12:15:18;2.23;;;1.30;;
15708;SDS011;7954;51.914;8.420;2023-04-03T12:17:49;2.13;;;1.20;;
15708;SDS011;7954;51.914;8.420;2023-04-03T12:23:26;2.47;;;1.50;;
15708;SDS011;7954;51.914;8.420;2023-04-03T12:25:59;2.17;;;1.53;;
15708;SDS011;7954;51.914;8.420;2023-04-03T12:28:48;1.47;;;1.27;;
15708;SDS011;7954;51.914;8.420;2023-04-03T12:31:19;1.93;;;1.30;;
15708;SDS011;7954;51.914;8.420;2023-04-03T12:36:46;2.93;;;1.43;;
15708;SDS011;7954;51.914;8.420;2023-04-03T12:39:29;2.97;;;1.30;;
15708;SDS011;7954;51.914;8.420;2023-04-03T12:42:17;2.00;;;1.30;;
15708;SDS011;7954;51.914;8.420;2023-04-03T12:44:58;2.53;;;1.40;;
15708;SDS011;7954;51.914;8.420;2023-04-03T12:47:34;1.93;;;1.30;;
15708;SDS011;7954;51.914;8.420;2023-04-03T12:50:13;2.30;;;1.30;;
15708;SDS011;7954;51.914;8.420;2023-04-03T12:52:47;1.57;;;1.20;;
15708;SDS011;7954;51.914;8.420;2023-04-03T12:55:21;1.37;;;1.23;;
15708;SDS011;7954;51.914;8.420;2023-04-03T12:57:50;2.13;;;1.40;;
15708;SDS011;7954;51.914;8.420;2023-04-03T13:00:18;2.47;;;1.60;;
15708;SDS011;7954;51.914;8.420;2023-04-03T13:02:48;2.20;;;1.63;;
15708;SDS011;7954;51.914;8.420;2023-04-03T13:05:18;2.73;;;1.70;;
15708;SDS011;7954;51.914;8.420;2023-04-03T13:07:48;2.20;;;1.40;;
15708;SDS011;7954;51.914;8.420;2023-04-03T13:10:19;3.73;;;1.77;;
15708;SDS011;7954;51.914;8.420;2023-04-03T13:12:49;1.73;;;1.50;;
15708;SDS011;7954;51.914;8.420;2023-04-03T13:15:19;2.53;;;1.80;;
15708;SDS011;7954;51.914;8.420;2023-04-03T13:17:51;3.17;;;2.13;;
15708;SDS011;7954;51.914;8.420;2023-04-03T13:20:21;2.10;;;1.50;;
15708;SDS011;7954;51.914;8.420;2023-04-03T13:22:53;2.50;;;1.80;;
15708;SDS011;7954;51.914;8.420;2023-04-03T13:25:28;2.20;;;1.80;;
15708;SDS011;7954;51.914;8.420;2023-04-03T13:27:58;2.03;;;1.80;;
15708;SDS011;7954;51.914;8.420;2023-04-03T13:30:39;1.60;;;1.50;;
15708;SDS011;7954;51.914;8.420;2023-04-03T13:33:18;2.45;;;2.25;;
15708;SDS011;7954;51.914;8.420;2023-04-03T13:35:53;2.97;;;1.67;;
15708;SDS011;7954;51.914;8.420;2023-04-03T13:38:24;1.70;;;1.58;;
15708;SDS011;7954;51.914;8.420;2023-04-03T13:40:55;2.85;;;1.85;;
15708;SDS011;7954;51.914;8.420;2023-04-03T13:43:29;1.65;;;1.45;;
15708;SDS011;7954;51.914;8.420;2023-04-03T13:46:03;2.53;;;1.95;;
15708;SDS011;7954;51.914;8.420;2023-04-03T13:48:49;3.25;;;2.95;;
15708;SDS011;7954;51.914;8.420;2023-04-03T13:51:19;2.45;;;1.95;;
15708;SDS011;7954;51.914;8.420;2023-04-03T13:53:51;1.75;;;1.50;;
15708;SDS011;7954;51.914;8.420;2023-04-03T13:56:25;1.45;;;1.35;;
15708;SDS011;7954;51.914;8.420;2023-04-03T13:58:58;2.55;;;1.85;;
15708;SDS011;7954;51.914;8.420;2023-04-03T14:01:34;2.03;;;1.83;;
15708;SDS011;7954;51.914;8.420;2023-04-03T14:04:13;2.33;;;2.13;;
15708;SDS011;7954;51.914;8.420;2023-04-03T14:06:44;1.60;;;1.43;;
15708;SDS011;7954;51.914;8.420;2023-04-03T14:09:13;2.13;;;1.93;;
15708;SDS011;7954;51.914;8.420;2023-04-03T14:11:43;2.30;;;2.00;;
15708;SDS011;7954;51.914;8.420;2023-04-03T14:14:14;2.03;;;1.83;;
15708;SDS011;7954;51.914;8.420;2023-04-03T14:16:46;2.60;;;1.92;;
15708;SDS011;7954;51.914;8.420;2023-04-03T14:19:17;2.88;;;1.85;;
15708;SDS011;7954;51.914;8.420;2023-04-03T14:21:49;2.55;;;2.35;;
15708;SDS011;7954;51.914;8.420;2023-04-03T14:24:19;2.43;;;1.60;;
15708;SDS011;7954;51.914;8.420;2023-04-03T14:26:50;3.23;;;2.40;;
15708;SDS011;7954;51.914;8.420;2023-04-03T14:29:19;2.17;;;1.50;;
15708;SDS011;7954;51.914;8.420;2023-04-03T14:31:48;2.00;;;1.73;;
15708;SDS011;7954;51.914;8.420;2023-04-03T14:34:25;1.63;;;1.20;;
15708;SDS011;7954;51.914;8.420;2023-04-03T14:36:53;1.53;;;1.30;;
15708;SDS011;7954;51.914;8.420;2023-04-03T14:39:22;2.30;;;1.40;;
15708;SDS011;7954;51.914;8.420;2023-04-03T14:41:51;3.23;;;2.00;;
15708;SDS011;7954;51.914;8.420;2023-04-03T14:44:18;2.40;;;1.90;;
15708;SDS011;7954;51.914;8.420;2023-04-03T14:46:46;2.20;;;1.37;;
15708;SDS011;7954;51.914;8.420;2023-04-03T14:49:24;2.57;;;1.30;;
15708;SDS011;7954;51.914;8.420;2023-04-03T14:51:54;3.67;;;2.10;;
15708;SDS011;7954;51.914;8.420;2023-04-03T14:54:22;3.33;;;2.63;;
15708;SDS011;7954;51.914;8.420;2023-04-03T14:56:56;2.23;;;1.50;;
15708;SDS011;7954;51.914;8.420;2023-04-03T14:59:26;2.87;;;1.77;;
15708;SDS011;7954;51.914;8.420;2023-04-03T15:01:54;2.65;;;2.15;;
15708;SDS011;7954;51.914;8.420;2023-04-03T15:04:22;2.50;;;2.30;;
15708;SDS011;7954;51.914;8.420;2023-04-03T15:06:51;3.75;;;2.58;;
15708;SDS011;7954;51.914;8.420;2023-04-03T15:09:22;3.00;;;2.60;;
15708;SDS011;7954;51.914;8.420;2023-04-03T15:11:51;5.03;;;4.53;;
15708;SDS011;7954;51.914;8.420;2023-04-03T15:14:22;2.10;;;1.50;;
15708;SDS011;7954;51.914;8.420;2023-04-03T15:17:02;2.13;;;1.67;;
15708;SDS011;7954;51.914;8.420;2023-04-03T15:19:31;2.97;;;2.10;;
15708;SDS011;7954;51.914;8.420;2023-04-03T15:22:03;1.88;;;1.77;;
15708;SDS011;7954;51.914;8.420;2023-04-03T15:24:31;2.53;;;2.15;;
15708;SDS011;7954;51.914;8.420;2023-04-03T15:27:00;4.30;;;3.90;;
15708;SDS011;7954;51.914;8.420;2023-04-03T15:29:31;3.53;;;3.08;;
15708;SDS011;7954;51.914;8.420;2023-04-03T15:31:59;2.75;;;2.25;;
15708;SDS011;7954;51.914;8.420;2023-04-03T15:34:27;2.50;;;2.30;;
15708;SDS011;7954;51.914;8.420;2023-04-03T15:36:55;2.38;;;2.17;;
15708;SDS011;7954;51.914;8.420;2023-04-03T15:39:24;2.85;;;2.20;;
15708;SDS011;7954;51.914;8.420;2023-04-03T15:41:53;2.10;;;1.90;;
15708;SDS011;7954;51.914;8.420;2023-04-03T15:44:22;1.88;;;1.70;;
15708;SDS011;7954;51.914;8.420;2023-04-03T15:46:51;4.15;;;2.20;;
15708;SDS011;7954;51.914;8.420;2023-04-03T15:49:19;2.85;;;1.92;;
15708;SDS011;7954;51.914;8.420;2023-04-03T15:51:50;2.17;;;1.77;;
15708;SDS011;7954;51.914;8.420;2023-04-03T15:54:18;2.00;;;1.80;;